Time;durP1;ratioP1;P1;durP2;ratioP2;P2;SDS_P1;SDS_P2;PMS_P1;PMS_P2;Temp;Humidity;BMP_temperature;BMP_pressure;BME280_temperature;BME280_humidity;BME280_pressure;Samples;Min_cycle;Max_cycle;Signal;HPM_P1;HPM_P2
2022/09/13 00:01:33;;;;;;;13.75;6.60;;;;;;;;;;8434698;28;20039;-85
2022/09/13 00:05:38;;;;;;;10.63;6.50;;;;;;;;;;8430512;28;20052;-83
2022/09/13 00:09:40;;;;;;;10.20;6.18;;;;;;;;;;8431213;28;20039;-82
2022/09/13 00:13:43;;;;;;;10.82;6.55;;;;;;;;;;8434051;28;20040;-86
2022/09/13 00:17:45;;;;;;;11.13;5.55;;;;;;;;;;8433706;28;20048;-81
2022/09/13 00:21:49;;;;;;;12.45;6.28;;;;;;;;;;8434497;28;20040;-83
2022/09/13 00:25:52;;;;;;;11.73;6.28;;;;;;;;;;8432498;28;20048;-81
2022/09/13 00:29:54;;;;;;;12.27;6.60;;;;;;;;;;8432764;28;20047;-81
2022/09/13 00:33:59;;;;;;;10.82;7.07;;;;;;;;;;8432359;28;20475;-82
2022/09/13 00:38:02;;;;;;;13.85;7.13;;;;;;;;;;8432487;28;20048;-87
2022/09/13 00:42:05;;;;;;;12.80;7.00;;;;;;;;;;8434082;28;20442;-82
2022/09/13 00:46:08;;;;;;;14.60;7.50;;;;;;;;;;8429343;28;20457;-82
2022/09/13 00:50:18;;;;;;;9.25;5.88;;;;;;;;;;8436448;28;20056;-82
2022/09/13 00:54:24;;;;;;;13.43;6.93;;;;;;;;;;8420989;28;20123;-82
2022/09/13 00:58:32;;;;;;;13.45;6.85;;;;;;;;;;8433917;28;20051;-84
2022/09/13 01:02:34;;;;;;;9.32;5.75;;;;;;;;;;8432153;28;20545;-85
2022/09/13 01:06:42;;;;;;;15.73;7.25;;;;;;;;;;8431034;28;20411;-82
2022/09/13 01:10:48;;;;;;;11.60;6.60;;;;;;;;;;8429762;28;20048;-82
2022/09/13 01:14:52;;;;;;;13.00;6.03;;;;;;;;;;8434052;28;20090;-82
2022/09/13 01:18:54;;;;;;;11.63;6.43;;;;;;;;;;8429700;28;20068;-81
2022/09/13 01:23:23;;;;;;;9.88;6.03;;;;;;;;;;8430751;28;20040;-82
2022/09/13 01:27:38;;;;;;;11.57;5.40;;;;;;;;;;8426005;28;20057;-82
2022/09/13 01:31:51;;;;;;;10.82;6.13;;;;;;;;;;8398021;28;20049;-81
2022/09/13 01:36:15;;;;;;;9.77;6.57;;;;;;;;;;8431613;28;20050;-82
2022/09/13 01:40:32;;;;;;;10.32;5.68;;;;;;;;;;8433720;28;20044;-82
2022/09/13 01:44:47;;;;;;;11.50;6.28;;;;;;;;;;8431330;28;20040;-81
2022/09/13 01:49:02;;;;;;;14.75;6.97;;;;;;;;;;8430354;28;20048;-81
2022/09/13 01:53:10;;;;;;;17.88;7.28;;;;;;;;;;8427928;28;20044;-82
2022/09/13 01:57:27;;;;;;;10.40;7.05;;;;;;;;;;8426575;28;20402;-88
2022/09/13 02:01:32;;;;;;;11.68;7.32;;;;;;;;;;8427752;28;20442;-82
2022/09/13 02:05:41;;;;;;;14.52;7.10;;;;;;;;;;8415521;28;20065;-81
2022/09/13 02:09:46;;;;;;;10.50;6.57;;;;;;;;;;8420550;28;20044;-87
2022/09/13 02:13:54;;;;;;;10.65;6.75;;;;;;;;;;8424483;28;20048;-81
2022/09/13 02:18:05;;;;;;;12.75;7.18;;;;;;;;;;8426511;28;20475;-87
2022/09/13 02:22:14;;;;;;;11.38;7.38;;;;;;;;;;8417224;28;20044;-81
2022/09/13 02:26:18;;;;;;;16.52;7.53;;;;;;;;;;8399713;28;20090;-81
2022/09/13 02:30:21;;;;;;;15.90;7.82;;;;;;;;;;8396274;28;20052;-81
2022/09/13 02:34:29;;;;;;;13.45;7.63;;;;;;;;;;8396242;28;20048;-81
2022/09/13 02:38:39;;;;;;;13.57;7.85;;;;;;;;;;8399255;28;20059;-82
2022/09/13 02:42:44;;;;;;;13.45;7.50;;;;;;;;;;8396407;28;20045;-81
2022/09/13 02:47:10;;;;;;;13.63;8.32;;;;;;;;;;8395808;28;20043;-81
2022/09/13 02:51:21;;;;;;;13.93;7.72;;;;;;;;;;8395762;28;20048;-81
2022/09/13 02:55:30;;;;;;;17.45;8.95;;;;;;;;;;8395776;28;20050;-81
2022/09/13 02:59:33;;;;;;;13.50;7.40;;;;;;;;;;8395701;28;20454;-82
2022/09/13 03:03:35;;;;;;;11.98;7.82;;;;;;;;;;8407385;28;20048;-81
2022/09/13 03:07:38;;;;;;;12.35;7.60;;;;;;;;;;8397134;28;20056;-80
2022/09/13 03:12:05;;;;;;;11.85;6.97;;;;;;;;;;8411148;28;20052;-84
2022/09/13 03:16:20;;;;;;;14.43;7.20;;;;;;;;;;8431215;28;20051;-86
2022/09/13 03:20:35;;;;;;;11.50;6.07;;;;;;;;;;8429614;28;20036;-81
2022/09/13 03:24:48;;;;;;;18.17;8.35;;;;;;;;;;8424192;28;20055;-81
2022/09/13 03:29:04;;;;;;;15.35;8.32;;;;;;;;;;8417280;28;20472;-82
2022/09/13 03:33:14;;;;;;;16.48;8.10;;;;;;;;;;8405245;28;20472;-82
2022/09/13 03:37:27;;;;;;;19.00;8.57;;;;;;;;;;8432801;28;20043;-81
2022/09/13 03:41:34;;;;;;;15.50;8.90;;;;;;;;;;8425768;28;20043;-86
2022/09/13 03:45:43;;;;;;;14.13;8.15;;;;;;;;;;8428144;28;20036;-82
2022/09/13 03:49:47;;;;;;;15.63;8.07;;;;;;;;;;8420682;28;20052;-83
2022/09/13 03:53:56;;;;;;;17.95;8.45;;;;;;;;;;8427295;28;20040;-82
2022/09/13 03:57:58;;;;;;;14.10;7.82;;;;;;;;;;8431095;28;20047;-81
2022/09/13 04:02:03;;;;;;;11.77;7.35;;;;;;;;;;8425196;28;20048;-82
2022/09/13 04:06:06;;;;;;;14.05;8.35;;;;;;;;;;8423654;28;20052;-82
2022/09/13 04:10:10;;;;;;;13.30;7.82;;;;;;;;;;8432176;28;20476;-82
2022/09/13 04:14:14;;;;;;;17.00;9.13;;;;;;;;;;8429253;28;20044;-88
2022/09/13 04:18:19;;;;;;;14.80;8.65;;;;;;;;;;8418122;28;20503;-81
2022/09/13 04:22:21;;;;;;;15.48;8.35;;;;;;;;;;8401069;28;20053;-80
2022/09/13 04:26:24;;;;;;;20.27;10.82;;;;;;;;;;8400486;28;20248;-81
2022/09/13 04:30:27;;;;;;;22.05;10.32;;;;;;;;;;8402066;28;20511;-80
2022/09/13 04:34:31;;;;;;;22.60;11.52;;;;;;;;;;8399919;28;20085;-81
2022/09/13 04:38:33;;;;;;;21.50;11.57;;;;;;;;;;8410305;28;20040;-81
2022/09/13 04:42:36;;;;;;;24.15;13.80;;;;;;;;;;8407739;28;20040;-83
2022/09/13 04:46:38;;;;;;;26.75;14.13;;;;;;;;;;8408453;28;20055;-81
2022/09/13 04:50:43;;;;;;;30.30;15.38;;;;;;;;;;8404099;28;20090;-85
2022/09/13 04:54:46;;;;;;;34.30;12.88;;;;;;;;;;8401851;28;20060;-84
2022/09/13 04:58:50;;;;;;;25.55;12.98;;;;;;;;;;8416002;28;20127;-86
2022/09/13 05:02:56;;;;;;;18.52;11.02;;;;;;;;;;8410792;28;20040;-83
2022/09/13 05:07:00;;;;;;;21.10;11.43;;;;;;;;;;8406945;28;20051;-87
2022/09/13 05:11:03;;;;;;;23.02;12.68;;;;;;;;;;8414799;28;20051;-84
2022/09/13 05:15:07;;;;;;;23.40;12.05;;;;;;;;;;8399971;28;20131;-88
2022/09/13 05:19:10;;;;;;;22.55;11.15;;;;;;;;;;8398932;28;20054;-82
2022/09/13 05:23:14;;;;;;;21.17;10.55;;;;;;;;;;8427198;28;20047;-87
2022/09/13 05:27:16;;;;;;;18.08;12.75;;;;;;;;;;8431794;28;20407;-84
2022/09/13 05:31:23;;;;;;;27.48;17.73;;;;;;;;;;8427076;28;20050;-88
2022/09/13 05:35:25;;;;;;;19.17;12.80;;;;;;;;;;8402315;28;20048;-83
2022/09/13 05:39:30;;;;;;;17.23;9.95;;;;;;;;;;8405606;28;20058;-82
2022/09/13 05:43:34;;;;;;;14.48;8.93;;;;;;;;;;8414117;28;20476;-82
2022/09/13 05:47:37;;;;;;;13.30;8.52;;;;;;;;;;8422327;28;20136;-83
2022/09/13 05:51:39;;;;;;;9.38;7.00;;;;;;;;;;8397277;28;20110;-82
2022/09/13 05:55:43;;;;;;;10.50;6.40;;;;;;;;;;8397267;28;20484;-82
2022/09/13 05:59:46;;;;;;;9.07;6.30;;;;;;;;;;8397107;28;20052;-82
2022/09/13 06:03:50;;;;;;;9.93;5.45;;;;;;;;;;8424994;28;20040;-83
2022/09/13 06:07:52;;;;;;;8.75;4.50;;;;;;;;;;8427857;28;20047;-87
2022/09/13 06:11:56;;;;;;;10.18;5.53;;;;;;;;;;8433683;28;20480;-85
2022/09/13 06:16:01;;;;;;;9.35;5.28;;;;;;;;;;8427102;28;20048;-83
2022/09/13 06:20:04;;;;;;;9.15;5.15;;;;;;;;;;8423624;28;20044;-83
2022/09/13 06:24:07;;;;;;;5.28;3.55;;;;;;;;;;8399331;28;20404;-87
2022/09/13 06:28:12;;;;;;;7.82;3.92;;;;;;;;;;8425742;28;20040;-88
2022/09/13 06:32:28;;;;;;;6.22;3.97;;;;;;;;;;8416862;28;20087;-87
2022/09/13 06:36:37;;;;;;;5.72;3.97;;;;;;;;;;8424402;28;20044;-83
2022/09/13 06:40:39;;;;;;;6.18;3.67;;;;;;;;;;8425251;28;20048;-87
2022/09/13 06:44:48;;;;;;;5.38;3.90;;;;;;;;;;8424641;28;20078;-88
2022/09/13 06:48:52;;;;;;;5.50;3.50;;;;;;;;;;8426110;28;20048;-85
2022/09/13 06:53:02;;;;;;;7.05;4.20;;;;;;;;;;8429243;28;20076;-86
2022/09/13 06:57:09;;;;;;;8.27;4.05;;;;;;;;;;8411884;28;20421;-88
2022/09/13 07:01:21;;;;;;;6.30;3.58;;;;;;;;;;8425104;28;20402;-83
2022/09/13 07:05:51;;;;;;;5.68;3.72;;;;;;;;;;8426047;28;20058;-88
2022/09/13 07:09:53;;;;;;;5.65;3.58;;;;;;;;;;8427088;28;20786;-85
2022/09/13 07:13:57;;;;;;;6.15;4.00;;;;;;;;;;8423016;28;20055;-82
2022/09/13 07:18:01;;;;;;;7.47;3.42;;;;;;;;;;8423154;28;20051;-82
2022/09/13 07:22:04;;;;;;;7.35;3.88;;;;;;;;;;8408570;28;20403;-81
2022/09/13 07:26:08;;;;;;;5.75;3.58;;;;;;;;;;8422185;28;20055;-84
2022/09/13 07:30:10;;;;;;;6.03;3.60;;;;;;;;;;8423163;28;20135;-84
2022/09/13 07:34:16;;;;;;;6.53;3.58;;;;;;;;;;8422910;28;20108;-82
2022/09/13 07:38:19;;;;;;;8.07;4.18;;;;;;;;;;8420640;28;20040;-83
2022/09/13 07:42:21;;;;;;;6.47;4.30;;;;;;;;;;8413595;28;20048;-84
2022/09/13 07:46:27;;;;;;;5.43;3.80;;;;;;;;;;8420437;28;20082;-82
2022/09/13 07:50:31;;;;;;;6.97;3.80;;;;;;;;;;8424594;28;20044;-83
2022/09/13 07:54:35;;;;;;;9.02;4.30;;;;;;;;;;8429463;28;20059;-85
2022/09/13 07:58:39;;;;;;;4.78;3.65;;;;;;;;;;8426122;28;20120;-81
2022/09/13 08:02:42;;;;;;;5.60;4.05;;;;;;;;;;8428066;28;20043;-82
2022/09/13 08:06:46;;;;;;;6.15;3.90;;;;;;;;;;8429349;28;20052;-82
2022/09/13 08:10:49;;;;;;;6.13;3.80;;;;;;;;;;8428895;28;20055;-82
2022/09/13 08:14:51;;;;;;;5.10;3.50;;;;;;;;;;8429219;28;20040;-83
2022/09/13 08:18:56;;;;;;;5.25;3.30;;;;;;;;;;8428733;28;20055;-83
2022/09/13 08:23:01;;;;;;;5.43;3.15;;;;;;;;;;8429221;28;20448;-82
2022/09/13 08:27:03;;;;;;;5.30;2.88;;;;;;;;;;8429456;28;20056;-82
2022/09/13 08:31:07;;;;;;;6.40;2.78;;;;;;;;;;8414456;28;20044;-82
2022/09/13 08:35:11;;;;;;;4.82;2.70;;;;;;;;;;8429538;28;20660;-82
2022/09/13 08:39:15;;;;;;;6.00;3.13;;;;;;;;;;8427033;28;20055;-82
2022/09/13 08:43:26;;;;;;;5.00;3.00;;;;;;;;;;8416464;28;20059;-82
2022/09/13 08:47:38;;;;;;;4.43;3.03;;;;;;;;;;8414172;28;20040;-81
2022/09/13 08:51:46;;;;;;;6.50;3.17;;;;;;;;;;8412289;28;20480;-81
2022/09/13 08:56:02;;;;;;;5.90;3.20;;;;;;;;;;8424473;28;20062;-82
2022/09/13 09:00:14;;;;;;;5.22;3.20;;;;;;;;;;8427080;28;20062;-82
2022/09/13 09:04:35;;;;;;;5.75;3.70;;;;;;;;;;8427716;28;20048;-84
2022/09/13 09:08:42;;;;;;;5.32;3.50;;;;;;;;;;8413506;28;20125;-83
2022/09/13 09:12:49;;;;;;;6.15;3.70;;;;;;;;;;8427016;28;20048;-83
2022/09/13 09:16:55;;;;;;;5.53;3.50;;;;;;;;;;8414890;28;20045;-83
2022/09/13 09:21:01;;;;;;;6.05;3.28;;;;;;;;;;8422039;28;20043;-83
2022/09/13 09:25:04;;;;;;;5.05;3.50;;;;;;;;;;8421011;28;20472;-82
2022/09/13 09:29:19;;;;;;;5.70;3.45;;;;;;;;;;8421980;28;20448;-84
2022/09/13 09:33:38;;;;;;;4.38;2.97;;;;;;;;;;8422185;28;20066;-82
2022/09/13 09:37:42;;;;;;;4.10;3.00;;;;;;;;;;8412878;28;20063;-82
2022/09/13 09:41:45;;;;;;;4.35;2.83;;;;;;;;;;8425976;28;20060;-82
2022/09/13 09:45:52;;;;;;;4.78;2.80;;;;;;;;;;8406785;28;20071;-85
2022/09/13 09:50:11;;;;;;;3.95;2.63;;;;;;;;;;8408591;28;20050;-86
2022/09/13 09:54:13;;;;;;;4.70;3.05;;;;;;;;;;8420935;28;20147;-81
2022/09/13 09:58:17;;;;;;;6.13;2.55;;;;;;;;;;8412243;28;20063;-82
2022/09/13 10:02:22;;;;;;;4.68;2.90;;;;;;;;;;8411463;28;20051;-82
2022/09/13 10:06:27;;;;;;;6.85;3.30;;;;;;;;;;8413683;28;20109;-81
2022/09/13 10:10:40;;;;;;;4.82;2.30;;;;;;;;;;8424718;28;20051;-82
2022/09/13 10:14:45;;;;;;;4.55;2.95;;;;;;;;;;8423148;28;20043;-82
2022/09/13 10:18:49;;;;;;;4.60;3.10;;;;;;;;;;8425748;28;20412;-84
2022/09/13 10:23:11;;;;;;;3.20;2.45;;;;;;;;;;8422842;28;20059;-82
2022/09/13 10:27:32;;;;;;;3.35;2.60;;;;;;;;;;8399722;28;20109;-85
2022/09/13 10:31:36;;;;;;;;;;;;;;;;;;8422853;28;20446;-83
2022/09/13 10:35:40;;;;;;;5.20;3.00;;;;;;;;;;8418339;28;19924;-83
2022/09/13 10:39:53;;;;;;;5.18;2.90;;;;;;;;;;8409978;28;20044;-82
2022/09/13 10:44:00;;;;;;;5.35;2.80;;;;;;;;;;8406000;28;20055;-82
2022/09/13 10:48:10;;;;;;;5.93;2.90;;;;;;;;;;8424169;28;20411;-82
2022/09/13 10:52:34;;;;;;;5.30;2.70;;;;;;;;;;8415443;28;20059;-84
2022/09/13 10:56:37;;;;;;;4.80;2.50;;;;;;;;;;8424143;28;20239;-82
2022/09/13 11:00:50;;;;;;;4.82;2.60;;;;;;;;;;8420189;28;20043;-85
2022/09/13 11:05:18;;;;;;;7.32;3.30;;;;;;;;;;8419268;28;20490;-82
2022/09/13 11:09:29;;;;;;;5.95;3.40;;;;;;;;;;8416359;28;20048;-82
2022/09/13 11:13:40;;;;;;;6.70;3.25;;;;;;;;;;8423999;28;20134;-81
2022/09/13 11:17:55;;;;;;;;;;;;;;;;;;8423196;28;20052;-82
2022/09/13 11:22:25;;;;;;;5.50;2.88;;;;;;;;;;8423077;28;19928;-82
2022/09/13 11:26:40;;;;;;;5.60;2.73;;;;;;;;;;8430676;28;20491;-82
2022/09/13 11:31:03;;;;;;;7.05;2.90;;;;;;;;;;8418736;28;20044;-82
2022/09/13 11:35:41;;;;;;;4.72;2.65;;;;;;;;;;8423938;28;20482;-83
2022/09/13 11:39:52;;;;;;;3.72;2.42;;;;;;;;;;8413244;28;20156;-83
2022/09/13 11:44:16;;;;;;;3.85;2.60;;;;;;;;;;8417275;28;20107;-83
2022/09/13 11:48:37;;;;;;;3.05;2.10;;;;;;;;;;8410319;28;20064;-84
2022/09/13 11:52:54;;;;;;;6.90;2.78;;;;;;;;;;8425719;28;20044;-82
2022/09/13 11:57:03;;;;;;;4.88;2.50;;;;;;;;;;8430432;28;20036;-85
2022/09/13 12:01:13;;;;;;;3.60;2.40;;;;;;;;;;8414459;28;20052;-85
2022/09/13 12:05:21;;;;;;;4.13;2.22;;;;;;;;;;8421871;28;20060;-85
2022/09/13 12:09:30;;;;;;;3.03;2.47;;;;;;;;;;8414572;28;20565;-86
2022/09/13 12:13:40;;;;;;;4.20;2.30;;;;;;;;;;8428584;28;20052;-83
2022/09/13 12:17:47;;;;;;;3.10;2.05;;;;;;;;;;8429010;28;20544;-83
2022/09/13 12:21:51;;;;;;;5.18;2.10;;;;;;;;;;8425359;28;20525;-82
2022/09/13 12:26:00;;;;;;;8.07;2.40;;;;;;;;;;8428189;28;20526;-81
2022/09/13 12:30:07;;;;;;;4.63;2.25;;;;;;;;;;8409072;28;20041;-83
2022/09/13 12:34:18;;;;;;;4.07;2.20;;;;;;;;;;8419628;28;20482;-82
2022/09/13 12:38:40;;;;;;;3.87;2.20;;;;;;;;;;8408965;28;20059;-83
2022/09/13 12:43:18;;;;;;;3.08;2.20;;;;;;;;;;8419722;28;20048;-80
2022/09/13 12:47:57;;;;;;;2.92;2.13;;;;;;;;;;8422773;28;20480;-81
2022/09/13 12:52:14;;;;;;;8.27;2.30;;;;;;;;;;8412414;28;20178;-82
2022/09/13 12:56:42;;;;;;;3.65;2.35;;;;;;;;;;8397305;28;20040;-81
2022/09/13 13:00:50;;;;;;;4.55;2.17;;;;;;;;;;8398635;28;20049;-81
2022/09/13 13:04:56;;;;;;;2.95;2.42;;;;;;;;;;8413017;28;20040;-81
2022/09/13 13:09:03;;;;;;;5.00;3.00;;;;;;;;;;8398458;28;20420;-81
2022/09/13 13:13:21;;;;;;;3.55;2.67;;;;;;;;;;8398531;28;20048;-81
2022/09/13 13:17:45;;;;;;;3.65;2.30;;;;;;;;;;8398358;28;20040;-82
2022/09/13 13:21:47;;;;;;;3.13;2.30;;;;;;;;;;8398015;28;20139;-81
2022/09/13 13:26:06;;;;;;;3.95;2.45;;;;;;;;;;8406519;28;20048;-86
2022/09/13 13:30:41;;;;;;;2.83;2.30;;;;;;;;;;8409618;28;20086;-85
2022/09/13 13:34:48;;;;;;;4.07;3.00;;;;;;;;;;8428319;28;20399;-84
2022/09/13 13:39:01;;;;;;;3.40;2.63;;;;;;;;;;8404755;28;20049;-82
2022/09/13 13:43:35;;;;;;;5.80;2.88;;;;;;;;;;8401899;28;20051;-87
2022/09/13 13:48:12;;;;;;;4.35;2.83;;;;;;;;;;8404337;28;20472;-88
2022/09/13 13:52:54;;;;;;;4.88;2.50;;;;;;;;;;8398243;28;20036;-87
2022/09/13 13:57:06;;;;;;;4.78;3.08;;;;;;;;;;8397917;28;20618;-88
2022/09/13 14:01:27;;;;;;;5.28;3.30;;;;;;;;;;8409212;28;20173;-87
2022/09/13 14:05:45;;;;;;;8.50;3.67;;;;;;;;;;8428752;28;20044;-87
2022/09/13 14:10:06;;;;;;;5.68;3.10;;;;;;;;;;8429785;28;20078;-87
2022/09/13 14:14:40;;;;;;;4.72;3.15;;;;;;;;;;8429263;28;20436;-84
2022/09/13 14:19:10;;;;;;;4.47;2.90;;;;;;;;;;8430117;28;20040;-84
2022/09/13 14:23:16;;;;;;;4.53;2.95;;;;;;;;;;8444340;28;20036;-81
2022/09/13 14:27:22;;;;;;;4.93;3.20;;;;;;;;;;8427492;28;20048;-84
2022/09/13 14:31:24;;;;;;;7.35;4.72;;;;;;;;;;8427695;28;20052;-83
2022/09/13 14:35:31;;;;;;;6.93;4.07;;;;;;;;;;8427269;28;20048;-87
2022/09/13 14:39:34;;;;;;;6.10;4.50;;;;;;;;;;8420909;28;20052;-84
2022/09/13 14:43:36;;;;;;;7.50;3.97;;;;;;;;;;8420112;28;20097;-87
2022/09/13 14:47:47;;;;;;;6.13;3.60;;;;;;;;;;8427226;28;20342;-86
2022/09/13 14:51:54;;;;;;;;;;;;;;;;;;8422054;28;20139;-87
2022/09/13 14:56:02;;;;;;;4.90;3.40;;;;;;;;;;8421755;28;20001;-82
2022/09/13 15:00:15;;;;;;;9.23;5.05;;;;;;;;;;8418710;28;20433;-83
2022/09/13 15:04:19;;;;;;;5.68;4.03;;;;;;;;;;8426269;28;20461;-82
2022/09/13 15:08:44;;;;;;;8.70;5.60;;;;;;;;;;8421129;28;20135;-83
2022/09/13 15:12:54;;;;;;;9.15;5.97;;;;;;;;;;8419779;28;20562;-84
2022/09/13 15:17:01;;;;;;;6.60;4.05;;;;;;;;;;8421498;28;20036;-87
2022/09/13 15:21:17;;;;;;;5.88;3.53;;;;;;;;;;8422021;28;20052;-84
2022/09/13 15:25:25;;;;;;;7.20;3.60;;;;;;;;;;8426321;28;20052;-87
2022/09/13 15:29:33;;;;;;;5.47;3.33;;;;;;;;;;8422695;28;20047;-87
2022/09/13 15:33:36;;;;;;;10.05;3.42;;;;;;;;;;8420111;28;20613;-82
2022/09/13 15:37:39;;;;;;;5.70;3.45;;;;;;;;;;8420841;28;20040;-83
2022/09/13 15:41:53;;;;;;;4.70;3.40;;;;;;;;;;8421276;28;20062;-86
2022/09/13 15:46:00;;;;;;;7.32;3.83;;;;;;;;;;8419889;28;20062;-84
2022/09/13 15:50:04;;;;;;;6.35;4.03;;;;;;;;;;8421447;28;20039;-87
2022/09/13 15:54:12;;;;;;;7.25;4.15;;;;;;;;;;8419642;28;20044;-84
2022/09/13 15:58:19;;;;;;;7.10;3.72;;;;;;;;;;8417494;28;20091;-87
2022/09/13 16:02:24;;;;;;;7.03;4.03;;;;;;;;;;8415466;28;20056;-88
2022/09/13 16:06:27;;;;;;;8.15;4.25;;;;;;;;;;8419360;28;20040;-89
2022/09/13 16:10:30;;;;;;;7.50;4.30;;;;;;;;;;8421970;28;20039;-85
2022/09/13 16:14:34;;;;;;;5.45;4.07;;;;;;;;;;8426486;28;20078;-87
2022/09/13 16:18:37;;;;;;;6.32;4.50;;;;;;;;;;8432828;28;20108;-84
2022/09/13 16:22:39;;;;;;;7.80;4.35;;;;;;;;;;8430888;28;20082;-86
2022/09/13 16:26:42;;;;;;;7.72;4.68;;;;;;;;;;8440346;28;20055;-82
2022/09/13 16:30:50;;;;;;;7.60;4.60;;;;;;;;;;8443420;28;20044;-88
2022/09/13 16:34:54;;;;;;;6.95;4.53;;;;;;;;;;8434988;28;20096;-82
2022/09/13 16:38:57;;;;;;;9.38;5.03;;;;;;;;;;8431608;28;20048;-84
2022/09/13 16:43:00;;;;;;;8.18;4.68;;;;;;;;;;8434145;28;20123;-82
2022/09/13 16:47:05;;;;;;;6.22;4.57;;;;;;;;;;8437468;28;20046;-87
2022/09/13 16:51:12;;;;;;;6.28;4.78;;;;;;;;;;8438208;28;20047;-84
2022/09/13 16:55:16;;;;;;;30.33;16.30;;;;;;;;;;8431010;28;20049;-87
2022/09/13 16:59:18;;;;;;;83.57;46.50;;;;;;;;;;8429757;28;20048;-85
2022/09/13 17:03:22;;;;;;;32.58;23.58;;;;;;;;;;8427465;28;20540;-86
2022/09/13 17:07:25;;;;;;;55.58;28.42;;;;;;;;;;8426665;28;20063;-86
2022/09/13 17:11:29;;;;;;;25.98;14.60;;;;;;;;;;8423276;28;20167;-87
2022/09/13 17:15:32;;;;;;;28.50;18.58;;;;;;;;;;8411179;28;20048;-85
2022/09/13 17:19:36;;;;;;;23.45;17.63;;;;;;;;;;8420254;28;20036;-83
2022/09/13 17:23:48;;;;;;;16.20;10.90;;;;;;;;;;8422474;28;20067;-82
2022/09/13 17:28:01;;;;;;;27.88;21.50;;;;;;;;;;8427282;28;20105;-87
2022/09/13 17:32:19;;;;;;;21.15;16.42;;;;;;;;;;8416537;28;20044;-88
2022/09/13 17:36:43;;;;;;;15.63;11.25;;;;;;;;;;8415541;28;20067;-86
2022/09/13 17:41:05;;;;;;;11.32;9.93;;;;;;;;;;8427510;28;20044;-88
2022/09/13 17:45:11;;;;;;;14.27;11.55;;;;;;;;;;8423923;28;20066;-85
2022/09/13 17:49:14;;;;;;;13.77;10.23;;;;;;;;;;8426607;28;20052;-87
2022/09/13 17:53:18;;;;;;;32.53;21.75;;;;;;;;;;8413893;28;20051;-83
2022/09/13 17:57:28;;;;;;;11.88;8.27;;;;;;;;;;8423554;28;20135;-83
2022/09/13 18:01:51;;;;;;;11.93;7.35;;;;;;;;;;8408890;28;20067;-88
2022/09/13 18:06:03;;;;;;;12.20;9.65;;;;;;;;;;8413137;28;20087;-87
2022/09/13 18:10:19;;;;;;;13.68;9.15;;;;;;;;;;8405814;28;20059;-86
2022/09/13 18:14:33;;;;;;;22.63;16.50;;;;;;;;;;8412442;28;20043;-85
2022/09/13 18:18:51;;;;;;;10.87;8.13;;;;;;;;;;8398656;28;20472;-82
2022/09/13 18:23:06;;;;;;;23.20;16.45;;;;;;;;;;8396324;28;20321;-82
2022/09/13 18:27:23;;;;;;;18.52;12.82;;;;;;;;;;8407959;28;20093;-88
2022/09/13 18:31:40;;;;;;;9.45;6.88;;;;;;;;;;8396463;28;20036;-88
2022/09/13 18:36:07;;;;;;;14.60;8.85;;;;;;;;;;8397019;28;20052;-89
2022/09/13 18:40:16;;;;;;;14.18;10.25;;;;;;;;;;8422257;28;20079;-82
2022/09/13 18:44:20;;;;;;;9.70;6.57;;;;;;;;;;8434932;28;20163;-85
2022/09/13 18:48:23;;;;;;;13.57;7.13;;;;;;;;;;8424080;28;20053;-83
2022/09/13 18:52:31;;;;;;;9.90;6.28;;;;;;;;;;8419812;28;20054;-89
2022/09/13 18:56:35;;;;;;;8.45;6.32;;;;;;;;;;8431943;28;20059;-88
2022/09/13 19:00:48;;;;;;;9.55;6.30;;;;;;;;;;8436870;28;20047;-83
2022/09/13 19:04:52;;;;;;;11.63;6.32;;;;;;;;;;8430743;28;20056;-87
2022/09/13 19:08:58;;;;;;;11.15;6.13;;;;;;;;;;8424248;28;20118;-84
2022/09/13 19:13:01;;;;;;;12.73;7.47;;;;;;;;;;8396958;28;20127;-82
2022/09/13 19:17:05;;;;;;;12.43;6.95;;;;;;;;;;8396725;28;20104;-83
2022/09/13 19:21:11;;;;;;;9.13;6.20;;;;;;;;;;8396163;28;20416;-82
2022/09/13 19:25:14;;;;;;;12.85;7.45;;;;;;;;;;8396247;28;20040;-83
2022/09/13 19:29:20;;;;;;;12.02;7.82;;;;;;;;;;8396194;28;20044;-82
2022/09/13 19:33:24;;;;;;;11.75;6.93;;;;;;;;;;8396388;28;20565;-83
2022/09/13 19:37:26;;;;;;;10.88;7.38;;;;;;;;;;8395730;28;20094;-83
2022/09/13 19:41:30;;;;;;;13.25;7.10;;;;;;;;;;8395246;28;20044;-81
2022/09/13 19:45:32;;;;;;;11.48;7.70;;;;;;;;;;8399798;28;20045;-81
2022/09/13 19:49:36;;;;;;;12.60;8.07;;;;;;;;;;8401923;28;20450;-82
2022/09/13 19:53:39;;;;;;;9.45;6.95;;;;;;;;;;8401718;28;20416;-85
2022/09/13 19:57:42;;;;;;;13.50;7.22;;;;;;;;;;8401690;28;20615;-81
2022/09/13 20:01:46;;;;;;;12.77;8.35;;;;;;;;;;8401170;28;20131;-81
2022/09/13 20:05:50;;;;;;;13.90;7.82;;;;;;;;;;8415265;28;20187;-85
2022/09/13 20:09:53;;;;;;;10.20;7.70;;;;;;;;;;8414988;28;20070;-86
2022/09/13 20:13:58;;;;;;;12.20;7.90;;;;;;;;;;8399079;28;20036;-81
2022/09/13 20:18:00;;;;;;;10.82;7.47;;;;;;;;;;8400082;28;20506;-82
2022/09/13 20:22:04;;;;;;;11.93;7.47;;;;;;;;;;8411394;28;20044;-85
2022/09/13 20:26:14;;;;;;;10.77;6.97;;;;;;;;;;8399070;28;20045;-86
2022/09/13 20:30:17;;;;;;;16.35;8.63;;;;;;;;;;8400342;28;20130;-86
2022/09/13 20:34:20;;;;;;;11.57;7.18;;;;;;;;;;8400531;28;20045;-82
2022/09/13 20:38:24;;;;;;;11.32;7.05;;;;;;;;;;8414231;28;20059;-82
2022/09/13 20:42:26;;;;;;;11.32;6.93;;;;;;;;;;8399817;28;20049;-81
2022/09/13 20:46:30;;;;;;;11.50;7.05;;;;;;;;;;8400358;28;20455;-82
2022/09/13 20:50:33;;;;;;;11.40;7.10;;;;;;;;;;8413808;28;20041;-85
2022/09/13 20:54:37;;;;;;;11.15;7.10;;;;;;;;;;8399342;28;20045;-81
2022/09/13 20:58:41;;;;;;;10.60;7.20;;;;;;;;;;8400848;28;20056;-86
2022/09/13 21:02:45;;;;;;;13.55;7.95;;;;;;;;;;8418661;28;20075;-78
2022/09/13 21:11:13;;;;;;;10.50;7.90;;;;;;;;;;8399571;28;20196;-82
2022/09/13 21:15:16;;;;;;;12.30;7.97;;;;;;;;;;8399516;28;20049;-82
2022/09/13 21:19:18;;;;;;;11.52;8.63;;;;;;;;;;8399294;28;20090;-82
2022/09/13 21:23:21;;;;;;;13.23;8.77;;;;;;;;;;8398739;28;20045;-85
2022/09/13 21:27:25;;;;;;;13.13;8.82;;;;;;;;;;8399054;28;20049;-85
2022/09/13 21:31:29;;;;;;;11.52;8.35;;;;;;;;;;8398290;28;20064;-88
2022/09/13 21:35:31;;;;;;;11.05;8.73;;;;;;;;;;8398240;28;20071;-83
2022/09/13 21:39:34;;;;;;;12.32;8.70;;;;;;;;;;8398234;28;20055;-83
2022/09/13 21:43:38;;;;;;;13.50;9.45;;;;;;;;;;8398427;28;20044;-85
2022/09/13 21:47:40;;;;;;;17.98;9.38;;;;;;;;;;8398440;28;20060;-83
2022/09/13 21:51:45;;;;;;;14.20;9.55;;;;;;;;;;8397726;28;20055;-88
2022/09/13 21:55:47;;;;;;;13.93;9.20;;;;;;;;;;8397695;28;20403;-83
2022/09/13 21:59:51;;;;;;;12.30;8.52;;;;;;;;;;8397565;28;20048;-82
2022/09/13 22:03:54;;;;;;;13.90;9.07;;;;;;;;;;8411330;28;20488;-86
2022/09/13 22:07:56;;;;;;;15.05;10.15;;;;;;;;;;8396388;28;20060;-83
2022/09/13 22:11:59;;;;;;;14.27;10.23;;;;;;;;;;8397429;28;20044;-87
2022/09/13 22:16:09;;;;;;;18.90;11.20;;;;;;;;;;8396886;28;20080;-87
2022/09/13 22:20:12;;;;;;;14.75;10.40;;;;;;;;;;8396852;28;20048;-83
2022/09/13 22:24:17;;;;;;;16.88;11.10;;;;;;;;;;8396551;28;20048;-87
2022/09/13 22:28:19;;;;;;;16.42;10.82;;;;;;;;;;8396511;28;20060;-85
2022/09/13 22:32:23;;;;;;;15.80;10.10;;;;;;;;;;8396474;28;20044;-82
2022/09/13 22:36:26;;;;;;;20.02;12.23;;;;;;;;;;8396296;28;20056;-83
2022/09/13 22:40:28;;;;;;;16.75;10.52;;;;;;;;;;8408591;28;20048;-82
2022/09/13 22:44:31;;;;;;;20.35;12.13;;;;;;;;;;8407183;28;20048;-86
2022/09/13 22:48:36;;;;;;;24.30;13.57;;;;;;;;;;8398309;28;20044;-82
2022/09/13 22:52:39;;;;;;;17.10;11.45;;;;;;;;;;8396043;28;20051;-85
2022/09/13 22:56:41;;;;;;;23.23;12.77;;;;;;;;;;8395822;28;20055;-84
2022/09/13 23:00:45;;;;;;;25.95;14.00;;;;;;;;;;8396294;28;20472;-82
2022/09/13 23:04:49;;;;;;;31.98;15.32;;;;;;;;;;8409919;28;20131;-87
2022/09/13 23:08:54;;;;;;;29.17;15.35;;;;;;;;;;8395747;28;20048;-82
2022/09/13 23:12:56;;;;;;;28.20;15.25;;;;;;;;;;8395285;28;20040;-83
2022/09/13 23:16:59;;;;;;;31.65;15.65;;;;;;;;;;8396064;28;20160;-86
2022/09/13 23:21:03;;;;;;;29.40;15.23;;;;;;;;;;8395204;28;20036;-82
2022/09/13 23:25:06;;;;;;;38.88;18.10;;;;;;;;;;8395376;28;20060;-82
2022/09/13 23:29:12;;;;;;;39.50;19.48;;;;;;;;;;8395393;28;20057;-83
2022/09/13 23:33:15;;;;;;;40.92;18.75;;;;;;;;;;8395632;28;20503;-87
2022/09/13 23:37:19;;;;;;;43.47;19.23;;;;;;;;;;8395257;28;20045;-82
2022/09/13 23:41:24;;;;;;;41.67;19.35;;;;;;;;;;8395430;28;20044;-88
2022/09/13 23:45:26;;;;;;;39.22;17.52;;;;;;;;;;8395084;28;20063;-83
2022/09/13 23:49:29;;;;;;;42.60;19.60;;;;;;;;;;8395012;28;20076;-82
2022/09/13 23:53:34;;;;;;;36.72;18.88;;;;;;;;;;8395175;28;20048;-86
2022/09/13 23:57:36;;;;;;;38.20;18.73;;;;;;;;;;8394955;28;20113;-83
